Time;durP1;ratioP1;P1;durP2;ratioP2;P2;SDS_P1;SDS_P2;PMS_P1;PMS_P2;Temp;Humidity;BMP_temperature;BMP_pressure;BME280_temperature;BME280_humidity;BME280_pressure;Samples;Min_cycle;Max_cycle;Signal;HPM_P1;HPM_P2
2020/12/01 00:01:52;;;;;;;34.43;19.73;;;-2.50;99.90;;;;;;5053729;28;20111;-86
2020/12/01 00:04:18;;;;;;;39.07;20.57;;;-2.60;99.90;;;;;;5053990;28;20454;-86
2020/12/01 00:06:44;;;;;;;34.63;19.27;;;-2.70;99.90;;;;;;5053785;28;20044;-86
2020/12/01 00:09:11;;;;;;;35.90;19.03;;;-2.70;99.90;;;;;;5052507;28;20056;-86
2020/12/01 00:11:36;;;;;;;35.33;19.57;;;-2.80;99.90;;;;;;5053561;28;20025;-86
2020/12/01 00:14:02;;;;;;;33.80;19.73;;;-2.80;99.90;;;;;;5051849;28;20029;-86
2020/12/01 00:16:28;;;;;;;36.87;20.33;;;-2.80;99.90;;;;;;5052708;28;20051;-86
2020/12/01 00:18:53;;;;;;;34.87;19.97;;;-2.90;99.90;;;;;;5052124;28;20057;-86
2020/12/01 00:21:20;;;;;;;33.40;19.60;;;-2.90;99.90;;;;;;5053448;28;20877;-85
2020/12/01 00:23:45;;;;;;;35.27;20.13;;;-3.00;99.90;;;;;;5053366;28;20017;-86
2020/12/01 00:26:14;;;;;;;35.13;19.60;;;-3.00;99.90;;;;;;5053269;28;20100;-85
2020/12/01 00:28:43;;;;;;;37.13;21.00;;;-3.00;99.90;;;;;;5054009;28;20017;-86
2020/12/01 00:31:08;;;;;;;36.50;19.47;;;-3.00;99.90;;;;;;5053528;28;20044;-82
2020/12/01 00:33:34;;;;;;;39.93;21.33;;;-3.10;99.90;;;;;;5051909;28;20029;-81
2020/12/01 00:36:00;;;;;;;31.23;18.27;;;-3.10;99.90;;;;;;5052103;28;20033;-82
2020/12/01 00:38:25;;;;;;;36.00;19.40;;;-3.10;99.90;;;;;;5050460;28;20056;-81
2020/12/01 00:40:52;;;;;;;36.13;19.70;;;-3.20;99.90;;;;;;5051702;28;20052;-81
2020/12/01 00:43:18;;;;;;;35.13;19.30;;;-3.20;99.90;;;;;;5051868;28;20067;-82
2020/12/01 00:45:44;;;;;;;32.97;18.20;;;-3.20;99.90;;;;;;5054106;28;20436;-81
2020/12/01 00:48:12;;;;;;;30.93;17.80;;;-3.20;99.90;;;;;;5052052;28;20017;-82
2020/12/01 00:50:38;;;;;;;33.57;18.47;;;-3.20;99.90;;;;;;5051568;28;20032;-81
2020/12/01 00:53:04;;;;;;;37.40;17.73;;;-3.30;99.90;;;;;;5050269;28;20600;-81
2020/12/01 00:55:29;;;;;;;30.83;17.97;;;-3.30;99.90;;;;;;5050284;28;20029;-81
2020/12/01 00:57:55;;;;;;;28.97;16.73;;;-3.30;99.90;;;;;;5057666;28;20040;-82
2020/12/01 01:00:26;;;;;;;28.03;16.30;;;-3.30;99.90;;;;;;5051553;28;20365;-82
2020/12/01 01:02:52;;;;;;;31.97;17.83;;;-3.30;99.90;;;;;;5049983;28;20092;-81
2020/12/01 01:05:18;;;;;;;30.93;17.33;;;-3.30;99.90;;;;;;5051206;28;20470;-81
2020/12/01 01:07:43;;;;;;;34.97;18.80;;;-3.30;99.90;;;;;;5051540;28;20028;-82
2020/12/01 01:10:16;;;;;;;31.37;17.70;;;-3.30;99.90;;;;;;5051049;28;20013;-82
2020/12/01 01:12:42;;;;;;;36.00;18.47;;;-3.30;99.90;;;;;;5051449;28;20355;-81
2020/12/01 01:15:08;;;;;;;35.17;19.90;;;-3.30;99.90;;;;;;5051173;28;20032;-82
2020/12/01 01:17:33;;;;;;;38.93;20.23;;;-3.30;99.90;;;;;;5051165;28;20040;-81
2020/12/01 01:19:59;;;;;;;38.73;21.17;;;-3.20;99.90;;;;;;5051145;28;20025;-81
2020/12/01 01:22:24;;;;;;;38.37;19.63;;;-3.20;99.90;;;;;;5051529;28;20203;-81
2020/12/01 01:24:50;;;;;;;35.77;19.00;;;-3.20;99.90;;;;;;5051573;28;20067;-81
2020/12/01 01:27:16;;;;;;;33.27;18.93;;;-3.20;99.90;;;;;;5051187;28;20508;-82
2020/12/01 01:29:41;;;;;;;33.60;18.90;;;-3.10;99.90;;;;;;5051903;28;20028;-81
2020/12/01 01:32:07;;;;;;;34.57;19.53;;;-3.10;99.90;;;;;;5051339;28;20025;-81
2020/12/01 01:34:32;;;;;;;36.00;19.53;;;-3.10;99.90;;;;;;5051550;28;20030;-81
2020/12/01 01:36:58;;;;;;;38.73;21.30;;;-3.10;99.90;;;;;;5051532;28;20488;-81
2020/12/01 01:39:23;;;;;;;38.30;19.03;;;-3.10;99.90;;;;;;5051554;28;20373;-81
2020/12/01 01:41:49;;;;;;;34.40;19.70;;;-3.00;99.90;;;;;;5051054;28;20568;-81
2020/12/01 01:44:24;;;;;;;33.83;18.70;;;-3.10;99.90;;;;;;5053048;28;20381;-82
2020/12/01 01:47:21;;;;;;;34.23;18.90;;;-3.00;99.90;;;;;;5050140;28;20021;-81
2020/12/01 01:50:02;;;;;;;35.40;19.43;;;-3.00;99.90;;;;;;5047269;28;20036;-81
2020/12/01 01:52:32;;;;;;;35.10;19.40;;;-3.10;99.90;;;;;;5055066;28;20036;-82
2020/12/01 01:55:05;;;;;;;36.07;20.30;;;-3.10;99.90;;;;;;5051315;28;20086;-81
2020/12/01 01:57:34;;;;;;;32.17;17.93;;;-3.00;99.90;;;;;;5052260;28;20120;-82
2020/12/01 02:00:02;;;;;;;33.70;18.77;;;-3.10;99.90;;;;;;5051425;28;20040;-82
2020/12/01 02:02:27;;;;;;;30.93;17.87;;;-3.00;99.90;;;;;;5051034;28;20028;-81
2020/12/01 02:04:53;;;;;;;33.50;19.87;;;-3.00;99.90;;;;;;5050868;28;20427;-82
2020/12/01 02:07:20;;;;;;;38.00;19.17;;;-3.00;99.90;;;;;;5049430;28;20021;-82
2020/12/01 02:09:56;;;;;;;31.23;18.33;;;-3.00;99.90;;;;;;5050822;28;20521;-81
2020/12/01 02:12:23;;;;;;;32.33;17.80;;;-3.00;99.90;;;;;;5051291;28;20498;-81
2020/12/01 02:14:52;;;;;;;34.70;18.60;;;-3.00;99.90;;;;;;5051069;28;20071;-82
2020/12/01 02:17:25;;;;;;;30.50;17.77;;;-3.00;99.90;;;;;;5051036;28;20077;-82
2020/12/01 02:19:57;;;;;;;31.83;18.50;;;-3.00;99.90;;;;;;5051059;28;20038;-82
2020/12/01 02:22:24;;;;;;;32.40;18.10;;;-3.00;99.90;;;;;;5046655;28;20025;-81
2020/12/01 02:24:51;;;;;;;36.27;18.70;;;-2.90;99.90;;;;;;5054876;28;20025;-81
2020/12/01 02:27:20;;;;;;;32.87;18.67;;;-2.90;99.90;;;;;;5054202;28;20032;-81
2020/12/01 02:29:48;;;;;;;37.07;20.00;;;-2.90;99.90;;;;;;5055907;28;20032;-81
2020/12/01 02:32:14;;;;;;;34.80;20.13;;;-2.90;99.90;;;;;;5065212;28;20037;-81
2020/12/01 02:34:43;;;;;;;32.73;18.87;;;-2.90;99.90;;;;;;5067817;28;20043;-81
2020/12/01 02:37:12;;;;;;;40.87;21.37;;;-2.90;99.90;;;;;;5067732;28;20077;-81
2020/12/01 02:39:37;;;;;;;31.43;18.87;;;-2.90;99.90;;;;;;5067682;28;20055;-81
2020/12/01 02:42:06;;;;;;;35.87;18.80;;;-2.90;99.90;;;;;;5068158;28;20033;-80
2020/12/01 02:44:32;;;;;;;37.23;19.80;;;-2.80;99.90;;;;;;5067754;28;20029;-81
2020/12/01 02:47:01;;;;;;;36.67;19.60;;;-2.80;99.90;;;;;;5067173;28;20029;-80
2020/12/01 02:49:27;;;;;;;36.23;20.13;;;-2.80;99.90;;;;;;5075721;28;20068;-81
2020/12/01 02:51:53;;;;;;;34.50;19.43;;;-2.80;99.90;;;;;;5057650;28;20412;-81
2020/12/01 02:54:18;;;;;;;30.80;18.07;;;-2.80;99.90;;;;;;5058307;28;20054;-81
2020/12/01 02:56:45;;;;;;;36.77;19.27;;;-2.80;99.90;;;;;;5061439;28;20070;-80
2020/12/01 02:59:14;;;;;;;36.70;20.10;;;-2.80;99.90;;;;;;5068122;28;20029;-81
2020/12/01 03:01:40;;;;;;;37.20;20.13;;;-2.80;99.90;;;;;;5066760;28;20140;-81
2020/12/01 03:04:05;;;;;;;34.60;20.07;;;-2.80;99.90;;;;;;5068581;28;20025;-81
2020/12/01 03:06:31;;;;;;;32.90;18.57;;;-2.80;99.90;;;;;;5068183;28;20056;-81
2020/12/01 03:08:56;;;;;;;32.87;18.77;;;-2.80;99.90;;;;;;5067447;28;20037;-81
2020/12/01 03:11:22;;;;;;;33.63;19.50;;;-2.80;99.90;;;;;;5068089;28;20021;-81
2020/12/01 03:13:50;;;;;;;34.67;19.47;;;-2.80;99.90;;;;;;5066690;28;20028;-81
2020/12/01 03:16:16;;;;;;;34.53;19.27;;;-2.80;99.90;;;;;;5066941;28;20017;-81
2020/12/01 03:18:44;;;;;;;34.30;18.40;;;-2.80;99.90;;;;;;5066734;28;20534;-82
2020/12/01 03:21:11;;;;;;;34.70;19.10;;;-2.80;99.90;;;;;;5063654;28;20056;-81
2020/12/01 03:23:37;;;;;;;30.87;18.30;;;-2.70;99.90;;;;;;5058454;28;20025;-81
2020/12/01 03:26:03;;;;;;;33.80;17.73;;;-2.70;99.90;;;;;;5060720;28;20032;-81
2020/12/01 03:28:29;;;;;;;32.37;18.30;;;-2.70;99.90;;;;;;5068812;28;20017;-81
2020/12/01 03:30:55;;;;;;;32.37;17.87;;;-2.70;99.90;;;;;;5068981;28;20056;-82
2020/12/01 03:33:22;;;;;;;37.73;19.60;;;-2.70;99.90;;;;;;5068452;28;20025;-81
2020/12/01 03:35:48;;;;;;;31.83;17.93;;;-2.60;99.90;;;;;;5068484;28;20024;-81
2020/12/01 03:38:14;;;;;;;32.47;17.93;;;-2.60;99.90;;;;;;5069042;28;20059;-81
2020/12/01 03:40:39;;;;;;;34.47;20.03;;;-2.60;99.90;;;;;;5061714;28;20040;-81
2020/12/01 03:43:05;;;;;;;32.00;18.73;;;-2.60;99.90;;;;;;5062147;28;20025;-81
2020/12/01 03:45:32;;;;;;;33.87;20.13;;;-2.60;99.90;;;;;;5068228;28;20104;-82
2020/12/01 03:47:57;;;;;;;31.23;17.70;;;-2.50;99.90;;;;;;5054709;28;20061;-82
2020/12/01 03:50:24;;;;;;;33.03;18.03;;;-2.50;99.90;;;;;;5053788;28;20075;-81
2020/12/01 03:52:50;;;;;;;30.97;17.13;;;-2.40;99.90;;;;;;5054424;28;20466;-82
2020/12/01 03:55:17;;;;;;;30.13;17.47;;;-2.40;99.90;;;;;;5054180;28;20071;-81
2020/12/01 03:57:42;;;;;;;32.83;18.53;;;-2.40;99.90;;;;;;5054379;28;20040;-82
2020/12/01 04:00:17;;;;;;;32.60;18.13;;;-2.30;99.90;;;;;;5053971;28;20017;-86
2020/12/01 04:02:43;;;;;;;28.83;16.98;;;-2.30;99.90;;;;;;5054250;28;20048;-86
2020/12/01 04:05:09;;;;;;;31.50;18.13;;;-2.20;99.90;;;;;;5054111;28;20462;-86
2020/12/01 04:07:35;;;;;;;29.40;17.47;;;-2.20;99.90;;;;;;5040055;28;20366;-86
2020/12/01 04:10:01;;;;;;;31.30;17.37;;;-2.20;99.90;;;;;;5054093;28;20021;-86
2020/12/01 04:12:29;;;;;;;28.87;16.47;;;-2.10;99.90;;;;;;5053767;28;20028;-86
2020/12/01 04:14:55;;;;;;;29.30;17.13;;;-2.10;99.90;;;;;;5052492;28;20036;-87
2020/12/01 04:17:21;;;;;;;26.80;16.33;;;-2.10;99.90;;;;;;5053850;28;20021;-86
2020/12/01 04:19:47;;;;;;;26.47;15.73;;;-2.00;99.90;;;;;;5052411;28;20385;-86
2020/12/01 04:22:13;;;;;;;29.63;17.47;;;-2.00;99.90;;;;;;5053466;28;20029;-86
2020/12/01 04:24:40;;;;;;;29.60;17.30;;;-2.00;99.90;;;;;;5053949;28;20490;-86
2020/12/01 04:27:09;;;;;;;31.20;17.60;;;-2.00;99.90;;;;;;5053535;28;20024;-86
2020/12/01 04:29:35;;;;;;;28.03;17.17;;;-2.00;99.90;;;;;;5051932;28;20028;-86
2020/12/01 04:32:01;;;;;;;30.27;17.00;;;-2.00;99.90;;;;;;5053552;28;20029;-86
2020/12/01 04:34:27;;;;;;;28.67;16.53;;;-1.90;99.90;;;;;;5053535;28;20033;-86
2020/12/01 04:36:53;;;;;;;27.43;16.73;;;-1.90;99.90;;;;;;5053329;28;20025;-86
2020/12/01 04:39:18;;;;;;;27.90;16.60;;;-1.90;99.90;;;;;;5053439;28;20047;-87
2020/12/01 04:41:44;;;;;;;29.07;16.77;;;-1.90;99.90;;;;;;5053245;28;20513;-86
2020/12/01 04:44:33;;;;;;;28.47;16.13;;;-1.90;99.90;;;;;;5053474;28;20090;-87
2020/12/01 04:47:02;;;;;;;27.50;15.43;;;-1.90;99.90;;;;;;5051181;28;20056;-86
2020/12/01 04:49:37;;;;;;;25.77;15.17;;;-1.90;99.90;;;;;;5053263;28;20070;-86
2020/12/01 04:52:23;;;;;;;;;;;-1.80;99.90;;;;;;5053696;28;20017;-86
2020/12/01 04:55:32;;;;;;;26.60;15.77;;;-1.80;99.90;;;;;;5053284;28;19949;-86
2020/12/01 04:58:25;;;;;;;25.93;14.93;;;-1.80;99.90;;;;;;5043963;28;20031;-86
2020/12/01 05:01:21;;;;;;;27.77;16.87;;;-1.70;99.90;;;;;;5040002;28;20332;-86
2020/12/01 05:03:59;;;;;;;25.85;15.30;;;-1.70;99.90;;;;;;5052880;28;20024;-86
2020/12/01 05:09:39;;;;;;;29.67;16.07;;;-1.70;99.90;;;;;;5039880;28;20027;-86
2020/12/01 05:12:20;;;;;;;28.77;16.83;;;-1.70;99.90;;;;;;5053971;28;20044;-87
2020/12/01 05:14:56;;;;;;;27.57;16.97;;;-1.70;99.90;;;;;;5050617;28;20021;-86
2020/12/01 05:17:49;;;;;;;27.47;16.03;;;-1.60;99.90;;;;;;5050544;28;20032;-87
2020/12/01 05:20:15;;;;;;;29.40;16.43;;;-1.60;99.90;;;;;;5043372;28;20036;-87
2020/12/01 05:22:51;;;;;;;27.53;16.67;;;-1.60;99.90;;;;;;5044171;28;20024;-86
2020/12/01 05:25:30;;;;;;;29.03;17.70;;;-1.60;99.90;;;;;;5041472;28;20035;-87
2020/12/01 05:28:08;;;;;;;29.80;17.33;;;-1.60;99.90;;;;;;5047381;28;20025;-86
2020/12/01 05:30:35;;;;;;;28.10;17.00;;;-1.50;99.90;;;;;;5041096;28;20029;-87
2020/12/01 05:33:18;;;;;;;30.70;22.00;;;-1.50;99.90;;;;;;5040005;28;20128;-87
2020/12/01 05:35:54;;;;;;;27.47;17.33;;;-1.50;99.90;;;;;;5040484;28;20060;-87
2020/12/01 05:38:21;;;;;;;29.07;18.73;;;-1.50;99.90;;;;;;5042702;28;20020;-86
2020/12/01 05:40:52;;;;;;;31.00;17.67;;;-1.50;99.90;;;;;;5043561;28;20115;-87
2020/12/01 05:43:33;;;;;;;25.47;16.30;;;-1.40;99.90;;;;;;5041852;28;20029;-86
2020/12/01 05:46:18;;;;;;;25.87;14.73;;;-1.40;99.90;;;;;;5042761;28;20032;-87
2020/12/01 05:48:54;;;;;;;28.60;16.83;;;-1.40;99.90;;;;;;5037180;28;20022;-87
2020/12/01 05:51:27;;;;;;;23.67;14.73;;;-1.40;99.90;;;;;;5038835;28;20540;-87
2020/12/01 05:53:57;;;;;;;24.87;14.30;;;-1.40;99.90;;;;;;5042609;28;20039;-86
2020/12/01 05:56:23;;;;;;;29.73;15.80;;;-1.40;99.90;;;;;;5041684;28;20112;-88
2020/12/01 05:59:02;;;;;;;26.50;16.37;;;-1.30;99.90;;;;;;5051220;28;20063;-88
2020/12/01 06:01:41;;;;;;;25.17;15.53;;;-1.40;99.90;;;;;;5047345;28;20108;-87
2020/12/01 06:04:13;;;;;;;26.73;16.07;;;-1.30;99.90;;;;;;5054391;28;20013;-88
2020/12/01 06:07:00;;;;;;;28.20;16.67;;;-1.30;99.90;;;;;;5049309;28;20025;-88
2020/12/01 06:09:45;;;;;;;28.57;16.73;;;-1.20;99.90;;;;;;5050034;28;20140;-87
2020/12/01 06:12:43;;;;;;;28.08;16.55;;;-1.20;99.90;;;;;;5054578;28;20035;-88
2020/12/01 06:15:17;;;;;;;30.37;16.57;;;-1.20;99.90;;;;;;5025208;28;20025;-86
2020/12/01 06:17:49;;;;;;;25.13;15.67;;;-1.20;99.90;;;;;;5047294;28;20413;-85
2020/12/01 06:20:33;;;;;;;24.87;15.53;;;-1.10;99.90;;;;;;5051343;28;20040;-86
2020/12/01 06:23:20;;;;;;;25.47;14.93;;;-1.20;99.90;;;;;;5050553;28;20029;-81
2020/12/01 06:26:24;;;;;;;28.87;15.30;;;-1.20;99.90;;;;;;5050193;28;20120;-84
2020/12/01 06:29:08;;;;;;;26.17;16.00;;;-1.20;99.90;;;;;;5053720;28;20020;-84
2020/12/01 06:31:51;;;;;;;25.30;15.73;;;-1.20;99.90;;;;;;5054951;28;20040;-83
2020/12/01 06:35:01;;;;;;;28.57;15.97;;;-1.10;99.90;;;;;;5043358;28;20076;-84
2020/12/01 06:38:18;;;;;;;26.77;14.17;;;-1.10;99.90;;;;;;5041310;28;20037;-87
2020/12/01 06:40:52;;;;;;;25.43;15.17;;;-1.10;99.90;;;;;;4999008;28;20130;-81
2020/12/01 06:43:26;;;;;;;28.43;15.43;;;-1.00;99.90;;;;;;5051691;28;20021;-76
2020/12/01 06:45:55;;;;;;;29.50;15.97;;;-1.00;99.90;;;;;;5055581;28;20349;-81
2020/12/01 06:48:43;;;;;;;31.13;15.30;;;-1.00;99.90;;;;;;5057376;28;20089;-87
2020/12/01 06:51:13;;;;;;;25.50;14.90;;;-0.90;99.90;;;;;;5062858;28;20041;-80
2020/12/01 06:53:41;;;;;;;25.50;14.53;;;-0.90;99.90;;;;;;5068313;28;20059;-81
2020/12/01 06:56:07;;;;;;;28.43;15.47;;;-0.90;99.90;;;;;;5054086;28;20028;-80
2020/12/01 06:58:42;;;;;;;27.50;15.10;;;-0.80;99.90;;;;;;5056920;28;20381;-81
2020/12/01 07:01:17;;;;;;;26.70;14.17;;;-0.80;99.90;;;;;;5060184;28;20032;-88
2020/12/01 07:03:44;;;;;;;24.23;15.10;;;-0.80;99.90;;;;;;5053735;28;20028;-90
2020/12/01 07:06:40;;;;;;;28.93;15.23;;;-0.80;99.90;;;;;;5062590;28;20029;-91
2020/12/01 07:09:11;;;;;;;26.77;14.32;;;-0.70;99.90;;;;;;5053551;28;20016;-91
2020/12/01 07:11:58;;;;;;;25.57;14.23;;;-0.70;99.90;;;;;;5068176;28;20119;-90
2020/12/01 07:14:46;;;;;;;22.57;13.70;;;-0.70;99.90;;;;;;5041189;28;20017;-89
2020/12/01 07:17:20;;;;;;;23.73;14.50;;;-0.70;99.90;;;;;;5052855;28;20028;-88
2020/12/01 07:20:01;;;;;;;26.47;15.07;;;-0.70;99.90;;;;;;5054935;28;20017;-90
2020/12/01 07:22:43;;;;;;;25.67;13.40;;;-0.70;99.90;;;;;;5046401;28;20034;-90
2020/12/01 07:25:26;;;;;;;23.20;13.30;;;-0.60;99.90;;;;;;5049949;28;20026;-90
2020/12/01 07:28:06;;;;;;;25.07;13.53;;;-0.60;99.90;;;;;;5051277;28;20422;-90
2020/12/01 07:30:47;;;;;;;24.20;13.47;;;-0.60;99.90;;;;;;5054863;28;20051;-90
2020/12/01 07:33:19;;;;;;;28.67;14.60;;;-0.50;99.90;;;;;;5055699;28;20029;-86
2020/12/01 07:35:52;;;;;;;26.80;14.00;;;-0.50;99.90;;;;;;5053736;28;20025;-87
2020/12/01 07:38:35;;;;;;;24.80;13.10;;;-0.40;99.90;;;;;;5055246;28;20028;-86
2020/12/01 07:41:22;;;;;;;21.67;12.97;;;-0.50;99.90;;;;;;5054833;28;20040;-86
2020/12/01 07:44:08;;;;;;;21.37;13.27;;;-0.40;99.90;;;;;;5050816;28;20457;-85
2020/12/01 07:49:15;;;;;;;21.93;13.33;;;-0.30;99.90;;;;;;5055183;28;20111;-87
2020/12/01 07:51:41;;;;;;;26.50;13.60;;;-0.30;99.90;;;;;;5054864;28;20029;-86
2020/12/01 07:54:08;;;;;;;24.93;12.70;;;-0.30;99.90;;;;;;5054877;28;20032;-86
2020/12/01 07:56:37;;;;;;;28.43;14.30;;;-0.20;99.90;;;;;;5054896;28;20175;-86
2020/12/01 07:59:12;;;;;;;23.07;13.03;;;-0.20;99.90;;;;;;5054718;28;20456;-86
2020/12/01 08:01:39;;;;;;;23.73;13.43;;;-0.10;99.90;;;;;;5069331;28;20078;-86
2020/12/01 08:04:11;;;;;;;21.83;12.33;;;-0.10;99.90;;;;;;5071716;28;20045;-86
2020/12/01 08:06:37;;;;;;;22.27;12.50;;;0.00;99.90;;;;;;5054679;28;20025;-86
2020/12/01 08:09:29;;;;;;;21.67;11.87;;;0.00;99.90;;;;;;5055082;28;20048;-86
2020/12/01 08:12:01;;;;;;;21.47;12.40;;;0.00;99.90;;;;;;5052913;28;20033;-87
2020/12/01 08:14:27;;;;;;;21.03;12.30;;;0.10;99.90;;;;;;5039240;28;20021;-87
2020/12/01 08:17:21;;;;;;;22.50;12.53;;;0.10;99.90;;;;;;5053138;28;20076;-91
2020/12/01 08:19:47;;;;;;;20.13;11.33;;;0.20;99.90;;;;;;5044665;28;20037;-92
2020/12/01 08:22:19;;;;;;;20.37;11.30;;;0.30;99.90;;;;;;5052425;28;20727;-91
2020/12/01 08:24:46;;;;;;;19.63;11.40;;;0.30;99.90;;;;;;5053793;28;20473;-92
2020/12/01 08:27:20;;;;;;;20.60;12.10;;;0.40;99.90;;;;;;5055367;28;20303;-91
2020/12/01 08:29:48;;;;;;;18.37;11.30;;;0.40;99.90;;;;;;5055345;28;20112;-91
2020/12/01 08:32:32;;;;;;;24.23;13.07;;;0.50;99.90;;;;;;5057737;28;20052;-90
2020/12/01 08:35:09;;;;;;;23.77;12.60;;;0.50;99.90;;;;;;5052030;28;20021;-90
2020/12/01 08:37:47;;;;;;;21.47;11.80;;;0.50;99.90;;;;;;5047328;28;20025;-90
2020/12/01 08:40:32;;;;;;;20.33;12.23;;;0.60;99.90;;;;;;5051824;28;20041;-89
2020/12/01 08:43:14;;;;;;;21.08;12.07;;;0.60;99.90;;;;;;5053258;28;20493;-90
2020/12/01 08:46:03;;;;;;;22.83;10.90;;;0.70;99.90;;;;;;5045197;28;20017;-89
2020/12/01 08:48:47;;;;;;;16.30;10.23;;;0.70;99.90;;;;;;5045591;28;20100;-88
2020/12/01 08:51:13;;;;;;;18.57;10.10;;;0.80;99.90;;;;;;5068410;28;20483;-88
2020/12/01 08:53:45;;;;;;;18.37;10.47;;;0.80;99.90;;;;;;5052897;28;20060;-88
2020/12/01 08:56:19;;;;;;;23.70;12.03;;;0.80;99.90;;;;;;5068457;28;20477;-88
2020/12/01 08:58:48;;;;;;;25.57;12.77;;;0.90;99.90;;;;;;5052664;28;20020;-88
2020/12/01 09:01:15;;;;;;;23.03;12.87;;;0.90;99.90;;;;;;5042538;28;20029;-87
2020/12/01 09:04:01;;;;;;;26.70;12.80;;;0.90;99.90;;;;;;5053441;28;20488;-88
2020/12/01 09:06:32;;;;;;;;;;;1.00;99.90;;;;;;5044952;28;20029;-88
2020/12/01 09:09:06;;;;;;;23.03;11.33;;;1.00;99.90;;;;;;5052535;28;20372;-87
2020/12/01 09:14:38;;;;;;;22.37;12.33;;;1.00;99.90;;;;;;5055089;28;20028;-88
2020/12/01 09:23:03;;;;;;;16.10;10.20;;;1.10;99.90;;;;;;5052718;28;20373;-88
2020/12/01 09:25:29;;;;;;;17.17;10.57;;;1.10;99.90;;;;;;5051278;28;20029;-90
2020/12/01 09:27:55;;;;;;;18.10;10.97;;;1.20;99.90;;;;;;5051703;28;20457;-89
2020/12/01 09:30:34;;;;;;;21.03;11.10;;;1.20;99.90;;;;;;5048786;28;20040;-87
2020/12/01 09:33:01;;;;;;;18.03;11.13;;;1.20;99.90;;;;;;5054760;28;20381;-87
2020/12/01 09:35:27;;;;;;;19.07;10.73;;;1.20;99.90;;;;;;5040496;28;20460;-91
2020/12/01 09:37:53;;;;;;;22.40;11.53;;;1.20;99.90;;;;;;5051570;28;20071;-90
2020/12/01 09:40:19;;;;;;;22.40;11.17;;;1.20;99.90;;;;;;5052612;28;20112;-90
2020/12/01 09:42:49;;;;;;;18.60;11.13;;;1.20;99.90;;;;;;5054959;28;20135;-92
2020/12/01 09:45:24;;;;;;;19.10;11.57;;;1.30;99.90;;;;;;5048870;28;20033;-91
2020/12/01 09:47:56;;;;;;;20.02;11.15;;;1.30;99.90;;;;;;5067364;28;20033;-91
2020/12/01 09:50:31;;;;;;;20.20;12.07;;;1.30;99.90;;;;;;5072250;28;20021;-91
2020/12/01 10:02:39;;;;;;;22.50;11.53;;;1.40;99.90;;;;;;5053622;28;20034;-90
2020/12/01 10:13:59;;;;;;;22.57;12.10;;;1.50;99.90;;;;;;5055568;28;20137;-90
2020/12/01 10:22:13;;;;;;;19.30;11.67;;;1.50;99.90;;;;;;5053007;28;20036;-90
2020/12/01 10:30:57;;;;;;;22.23;11.50;;;1.60;99.90;;;;;;5051499;28;20043;-90
2020/12/01 10:34:56;;;;;;;21.03;11.97;;;1.60;99.90;;;;;;5052851;28;20040;-91
2020/12/01 10:37:22;;;;;;;21.70;11.57;;;1.60;99.90;;;;;;5052294;28;20021;-91
2020/12/01 10:39:47;;;;;;;20.40;12.23;;;1.60;99.90;;;;;;5051077;28;20079;-91
2020/12/01 10:42:14;;;;;;;23.63;12.30;;;1.60;99.90;;;;;;5052656;28;20083;-91
2020/12/01 10:44:40;;;;;;;19.20;12.43;;;1.70;99.90;;;;;;5068606;28;20368;-91
2020/12/01 10:47:06;;;;;;;23.30;13.13;;;1.70;99.90;;;;;;5047962;28;20112;-91
2020/12/01 10:49:32;;;;;;;22.47;12.93;;;1.60;99.90;;;;;;5056037;28;20029;-91
2020/12/01 10:51:58;;;;;;;23.53;13.47;;;1.60;99.90;;;;;;5060016;28;20104;-91
2020/12/01 10:54:24;;;;;;;31.27;14.97;;;1.60;99.90;;;;;;5056183;28;20045;-91
2020/12/01 10:56:51;;;;;;;31.40;16.80;;;1.60;99.90;;;;;;5055856;28;20056;-91
2020/12/01 10:59:17;;;;;;;31.53;17.63;;;1.60;99.90;;;;;;5055414;28;20146;-91
2020/12/01 11:01:43;;;;;;;57.50;22.80;;;1.60;99.90;;;;;;5055961;28;20028;-91
2020/12/01 11:04:09;;;;;;;37.17;19.40;;;1.50;99.90;;;;;;5056771;28;20480;-92
2020/12/01 11:06:36;;;;;;;34.07;18.03;;;1.60;99.90;;;;;;5051153;28;20025;-91
2020/12/01 11:09:06;;;;;;;28.13;15.40;;;1.50;99.90;;;;;;5056211;28;20025;-91
2020/12/01 11:11:32;;;;;;;34.13;17.10;;;1.60;99.90;;;;;;5055654;28;20080;-92
2020/12/01 11:13:58;;;;;;;28.30;15.13;;;1.60;99.90;;;;;;5056837;28;20033;-90
2020/12/01 11:16:23;;;;;;;29.47;14.50;;;1.60;99.90;;;;;;5059321;28;20028;-84
2020/12/01 11:18:49;;;;;;;26.10;14.43;;;1.60;99.90;;;;;;5060237;28;20484;-84
2020/12/01 11:21:14;;;;;;;23.20;13.87;;;1.60;99.90;;;;;;5053529;28;20091;-83
2020/12/01 11:23:40;;;;;;;36.33;16.97;;;1.50;99.90;;;;;;5047842;28;20029;-83
2020/12/01 11:26:06;;;;;;;21.97;12.53;;;1.60;99.90;;;;;;5045458;28;20530;-84
2020/12/01 11:28:31;;;;;;;19.57;13.10;;;1.60;99.90;;;;;;5055097;28;20053;-84
2020/12/01 11:30:57;;;;;;;19.27;12.73;;;1.50;99.90;;;;;;5055328;28;20032;-84
2020/12/01 11:33:22;;;;;;;39.80;17.00;;;1.50;99.90;;;;;;5054834;28;20035;-84
2020/12/01 11:35:48;;;;;;;26.00;13.57;;;1.50;99.90;;;;;;5057481;28;20020;-84
2020/12/01 11:38:15;;;;;;;24.07;12.83;;;1.50;99.90;;;;;;5056059;28;20065;-84
2020/12/01 11:40:41;;;;;;;42.77;18.27;;;1.40;99.90;;;;;;5042033;28;20041;-84
2020/12/01 11:43:06;;;;;;;22.57;12.70;;;1.50;99.90;;;;;;5052160;28;20119;-84
2020/12/01 11:45:32;;;;;;;29.90;14.50;;;1.60;99.90;;;;;;5053869;28;20445;-84
2020/12/01 11:47:58;;;;;;;43.73;17.93;;;1.60;99.90;;;;;;5054531;28;20025;-83
2020/12/01 11:50:23;;;;;;;21.27;12.37;;;1.60;99.90;;;;;;5054848;28;20029;-84
2020/12/01 11:52:49;;;;;;;21.10;12.67;;;1.60;99.90;;;;;;5060070;28;20064;-83
2020/12/01 11:55:15;;;;;;;17.10;11.17;;;1.60;99.90;;;;;;5054304;28;20029;-83
2020/12/01 11:57:40;;;;;;;18.80;11.50;;;1.60;99.90;;;;;;5054526;28;20025;-84
2020/12/01 12:00:08;;;;;;;18.17;11.67;;;1.50;99.90;;;;;;5049559;28;20105;-84
2020/12/01 12:02:34;;;;;;;21.27;13.30;;;1.60;99.90;;;;;;5053072;28;20039;-84
2020/12/01 12:04:59;;;;;;;18.80;12.43;;;1.60;99.90;;;;;;5054760;28;20409;-85
2020/12/01 12:07:25;;;;;;;17.70;11.83;;;1.70;99.90;;;;;;5055246;28;20342;-84
2020/12/01 12:09:50;;;;;;;19.40;12.67;;;1.70;99.90;;;;;;5054780;28;20098;-84
2020/12/01 12:12:16;;;;;;;19.40;12.67;;;1.60;99.90;;;;;;5054611;28;20029;-84
2020/12/01 12:14:44;;;;;;;19.37;11.63;;;1.60;99.90;;;;;;5054585;28;20059;-84
2020/12/01 12:17:10;;;;;;;19.43;11.70;;;1.60;99.90;;;;;;5054693;28;20033;-84
2020/12/01 12:19:36;;;;;;;20.17;11.47;;;1.60;99.90;;;;;;5054596;28;20028;-85
2020/12/01 12:22:01;;;;;;;20.13;12.37;;;1.60;99.90;;;;;;5054533;28;20040;-85
2020/12/01 12:24:27;;;;;;;17.37;11.27;;;1.60;99.90;;;;;;5054812;28;20071;-84
2020/12/01 12:26:53;;;;;;;19.20;12.17;;;1.60;99.90;;;;;;5054314;28;20025;-84
2020/12/01 12:29:18;;;;;;;24.97;14.17;;;1.50;99.90;;;;;;5054273;28;20477;-85
2020/12/01 12:31:44;;;;;;;21.60;13.60;;;1.60;99.90;;;;;;5054274;28;20063;-85
2020/12/01 12:34:09;;;;;;;19.80;13.53;;;1.60;99.90;;;;;;5054017;28;20043;-84
2020/12/01 12:36:35;;;;;;;25.17;16.03;;;1.70;99.90;;;;;;5052878;28;20040;-84
2020/12/01 12:39:00;;;;;;;22.60;14.77;;;1.70;99.90;;;;;;5054391;28;20101;-84
2020/12/01 12:41:26;;;;;;;18.47;12.90;;;1.70;99.90;;;;;;5053724;28;20191;-84
2020/12/01 12:43:52;;;;;;;16.23;11.17;;;1.80;99.90;;;;;;5054265;28;20025;-83
2020/12/01 12:46:17;;;;;;;19.10;10.47;;;1.80;99.90;;;;;;5052639;28;20128;-84
2020/12/01 12:48:43;;;;;;;16.33;11.00;;;1.80;99.90;;;;;;5053693;28;20156;-84
2020/12/01 12:51:09;;;;;;;21.30;11.27;;;1.70;99.90;;;;;;5052541;28;20025;-84
2020/12/01 12:53:34;;;;;;;16.23;10.53;;;1.70;99.90;;;;;;5052552;28;20064;-84
2020/12/01 12:56:00;;;;;;;17.47;11.40;;;1.80;99.90;;;;;;5053666;28;20068;-84
2020/12/01 12:58:26;;;;;;;16.20;10.93;;;1.80;99.90;;;;;;5054040;28;20032;-84
2020/12/01 13:00:51;;;;;;;14.40;9.00;;;1.90;99.90;;;;;;5053660;28;20395;-84
2020/12/01 13:03:17;;;;;;;10.60;7.60;;;1.90;99.90;;;;;;5055581;28;20020;-86
2020/12/01 13:05:43;;;;;;;9.83;6.13;;;2.00;99.90;;;;;;5053513;28;20412;-84
2020/12/01 13:08:08;;;;;;;9.00;5.87;;;2.00;99.90;;;;;;5053117;28;20029;-84
2020/12/01 13:10:35;;;;;;;8.73;5.90;;;2.00;99.90;;;;;;5053347;28;20055;-84
2020/12/01 13:13:01;;;;;;;10.03;5.70;;;2.10;99.90;;;;;;5053743;28;20024;-84
2020/12/01 13:15:27;;;;;;;8.57;6.07;;;2.00;99.90;;;;;;5053445;28;20487;-84
2020/12/01 13:17:53;;;;;;;8.90;5.97;;;2.10;99.90;;;;;;5053608;28;20051;-85
2020/12/01 13:20:23;;;;;;;8.43;5.77;;;2.10;99.90;;;;;;5053484;28;20029;-85
2020/12/01 13:22:49;;;;;;;8.50;5.50;;;2.10;99.90;;;;;;5058656;28;20025;-85
2020/12/01 13:25:15;;;;;;;8.80;5.87;;;2.10;99.90;;;;;;5072492;28;20108;-83
2020/12/01 13:27:41;;;;;;;8.83;5.93;;;2.10;99.90;;;;;;5073742;28;20020;-85
2020/12/01 13:30:09;;;;;;;9.93;6.00;;;2.10;99.90;;;;;;5073664;28;20020;-84
2020/12/01 13:32:35;;;;;;;8.23;5.80;;;2.10;99.90;;;;;;5073838;28;20124;-85
2020/12/01 13:35:01;;;;;;;8.47;6.17;;;2.00;99.90;;;;;;5073734;28;20466;-86
2020/12/01 13:37:27;;;;;;;8.87;6.20;;;2.00;99.90;;;;;;5073868;28;20024;-85